sensor_id;sensor_type;location;lat;lon;timestamp;P1;durP1;ratioP1;P2;durP2;ratioP2
52734;SDS011;38631;47.572;10.704;2023-07-08T00:02:09;9.82;;;3.45;;
52734;SDS011;38631;47.572;10.704;2023-07-08T00:04:36;9.65;;;3.95;;
52734;SDS011;38631;47.572;10.704;2023-07-08T00:07:01;6.57;;;3.97;;
52734;SDS011;38631;47.572;10.704;2023-07-08T00:09:27;6.78;;;4.18;;
52734;SDS011;38631;47.572;10.704;2023-07-08T00:11:52;6.55;;;4.03;;
52734;SDS011;38631;47.572;10.704;2023-07-08T00:14:17;6.43;;;4.22;;
52734;SDS011;38631;47.572;10.704;2023-07-08T00:16:43;5.82;;;3.78;;
52734;SDS011;38631;47.572;10.704;2023-07-08T00:19:08;6.53;;;4.10;;
52734;SDS011;38631;47.572;10.704;2023-07-08T00:21:35;8.13;;;4.03;;
52734;SDS011;38631;47.572;10.704;2023-07-08T00:24:01;6.68;;;3.65;;
52734;SDS011;38631;47.572;10.704;2023-07-08T00:26:27;9.88;;;4.22;;
52734;SDS011;38631;47.572;10.704;2023-07-08T00:28:54;6.35;;;3.70;;
52734;SDS011;38631;47.572;10.704;2023-07-08T00:31:21;7.80;;;4.50;;
52734;SDS011;38631;47.572;10.704;2023-07-08T00:33:50;7.90;;;4.07;;
52734;SDS011;38631;47.572;10.704;2023-07-08T00:36:16;5.95;;;3.55;;
52734;SDS011;38631;47.572;10.704;2023-07-08T00:38:42;6.28;;;3.47;;
52734;SDS011;38631;47.572;10.704;2023-07-08T00:41:27;7.82;;;4.22;;
52734;SDS011;38631;47.572;10.704;2023-07-08T00:43:57;5.85;;;3.88;;
52734;SDS011;38631;47.572;10.704;2023-07-08T00:48:52;6.30;;;3.80;;
52734;SDS011;38631;47.572;10.704;2023-07-08T00:51:21;5.75;;;3.95;;
52734;SDS011;38631;47.572;10.704;2023-07-08T00:53:48;6.88;;;3.80;;
52734;SDS011;38631;47.572;10.704;2023-07-08T00:59:01;9.23;;;3.97;;
52734;SDS011;38631;47.572;10.704;2023-07-08T01:01:32;7.45;;;3.83;;
52734;SDS011;38631;47.572;10.704;2023-07-08T01:04:08;9.82;;;3.97;;
52734;SDS011;38631;47.572;10.704;2023-07-08T01:06:38;6.30;;;3.47;;
52734;SDS011;38631;47.572;10.704;2023-07-08T01:09:06;9.98;;;3.55;;
52734;SDS011;38631;47.572;10.704;2023-07-08T01:11:35;7.15;;;3.13;;
52734;SDS011;38631;47.572;10.704;2023-07-08T01:14:04;8.13;;;3.73;;
52734;SDS011;38631;47.572;10.704;2023-07-08T01:16:32;6.90;;;3.92;;
52734;SDS011;38631;47.572;10.704;2023-07-08T01:19:01;6.15;;;3.40;;
52734;SDS011;38631;47.572;10.704;2023-07-08T01:24:06;9.70;;;4.07;;
52734;SDS011;38631;47.572;10.704;2023-07-08T01:26:34;6.22;;;3.47;;
52734;SDS011;38631;47.572;10.704;2023-07-08T01:29:03;7.82;;;3.60;;
52734;SDS011;38631;47.572;10.704;2023-07-08T01:31:29;10.27;;;3.92;;
52734;SDS011;38631;47.572;10.704;2023-07-08T01:33:54;8.20;;;3.35;;
52734;SDS011;38631;47.572;10.704;2023-07-08T01:36:20;7.35;;;4.05;;
52734;SDS011;38631;47.572;10.704;2023-07-08T01:38:46;6.47;;;3.10;;
52734;SDS011;38631;47.572;10.704;2023-07-08T01:41:12;4.40;;;3.00;;
52734;SDS011;38631;47.572;10.704;2023-07-08T01:43:39;7.63;;;3.38;;
52734;SDS011;38631;47.572;10.704;2023-07-08T01:46:07;7.13;;;3.47;;
52734;SDS011;38631;47.572;10.704;2023-07-08T01:48:52;6.53;;;3.63;;
52734;SDS011;38631;47.572;10.704;2023-07-08T01:51:21;7.97;;;3.63;;
52734;SDS011;38631;47.572;10.704;2023-07-08T01:53:48;7.22;;;3.72;;
52734;SDS011;38631;47.572;10.704;2023-07-08T01:56:13;5.88;;;3.92;;
52734;SDS011;38631;47.572;10.704;2023-07-08T01:58:39;6.40;;;3.30;;
52734;SDS011;38631;47.572;10.704;2023-07-08T02:01:05;8.55;;;3.72;;
52734;SDS011;38631;47.572;10.704;2023-07-08T02:03:32;6.78;;;3.78;;
52734;SDS011;38631;47.572;10.704;2023-07-08T02:05:57;6.05;;;3.40;;
52734;SDS011;38631;47.572;10.704;2023-07-08T02:08:23;6.57;;;3.97;;
52734;SDS011;38631;47.572;10.704;2023-07-08T02:10:49;9.70;;;4.13;;
52734;SDS011;38631;47.572;10.704;2023-07-08T02:13:18;6.93;;;3.43;;
52734;SDS011;38631;47.572;10.704;2023-07-08T02:15:43;6.28;;;3.80;;
52734;SDS011;38631;47.572;10.704;2023-07-08T02:18:09;9.65;;;3.50;;
52734;SDS011;38631;47.572;10.704;2023-07-08T02:20:34;7.40;;;3.75;;
52734;SDS011;38631;47.572;10.704;2023-07-08T02:23:00;6.05;;;3.80;;
52734;SDS011;38631;47.572;10.704;2023-07-08T02:25:25;6.88;;;3.83;;
52734;SDS011;38631;47.572;10.704;2023-07-08T02:27:51;7.55;;;3.83;;
52734;SDS011;38631;47.572;10.704;2023-07-08T02:30:19;9.15;;;4.10;;
52734;SDS011;38631;47.572;10.704;2023-07-08T02:32:45;5.40;;;3.60;;
52734;SDS011;38631;47.572;10.704;2023-07-08T02:35:22;6.05;;;3.65;;
52734;SDS011;38631;47.572;10.704;2023-07-08T02:37:52;5.35;;;3.47;;
52734;SDS011;38631;47.572;10.704;2023-07-08T02:40:18;7.45;;;3.55;;
52734;SDS011;38631;47.572;10.704;2023-07-08T02:42:43;7.90;;;3.28;;
52734;SDS011;38631;47.572;10.704;2023-07-08T02:45:09;9.38;;;3.92;;
52734;SDS011;38631;47.572;10.704;2023-07-08T02:47:35;6.50;;;3.08;;
52734;SDS011;38631;47.572;10.704;2023-07-08T02:50:01;5.70;;;3.42;;
52734;SDS011;38631;47.572;10.704;2023-07-08T02:52:26;6.07;;;3.38;;
52734;SDS011;38631;47.572;10.704;2023-07-08T02:54:52;7.60;;;3.75;;
52734;SDS011;38631;47.572;10.704;2023-07-08T02:57:17;5.70;;;3.53;;
52734;SDS011;38631;47.572;10.704;2023-07-08T02:59:42;6.38;;;3.50;;
52734;SDS011;38631;47.572;10.704;2023-07-08T03:02:08;6.75;;;3.15;;
52734;SDS011;38631;47.572;10.704;2023-07-08T03:04:33;8.27;;;3.60;;
52734;SDS011;38631;47.572;10.704;2023-07-08T03:07:04;6.35;;;3.67;;
52734;SDS011;38631;47.572;10.704;2023-07-08T03:09:30;7.60;;;3.67;;
52734;SDS011;38631;47.572;10.704;2023-07-08T03:11:57;5.70;;;3.22;;
52734;SDS011;38631;47.572;10.704;2023-07-08T03:14:23;8.73;;;4.20;;
52734;SDS011;38631;47.572;10.704;2023-07-08T03:16:48;7.40;;;3.45;;
52734;SDS011;38631;47.572;10.704;2023-07-08T03:19:14;5.55;;;3.00;;
52734;SDS011;38631;47.572;10.704;2023-07-08T03:21:40;7.20;;;3.50;;
52734;SDS011;38631;47.572;10.704;2023-07-08T03:24:08;9.20;;;3.45;;
52734;SDS011;38631;47.572;10.704;2023-07-08T03:26:36;10.20;;;3.60;;
52734;SDS011;38631;47.572;10.704;2023-07-08T03:29:02;6.10;;;3.70;;
52734;SDS011;38631;47.572;10.704;2023-07-08T03:31:27;6.25;;;3.03;;
52734;SDS011;38631;47.572;10.704;2023-07-08T03:33:53;6.38;;;3.45;;
52734;SDS011;38631;47.572;10.704;2023-07-08T03:36:18;6.25;;;3.40;;
52734;SDS011;38631;47.572;10.704;2023-07-08T03:38:53;5.60;;;3.20;;
52734;SDS011;38631;47.572;10.704;2023-07-08T03:41:21;5.65;;;3.13;;
52734;SDS011;38631;47.572;10.704;2023-07-08T03:43:46;7.40;;;3.58;;
52734;SDS011;38631;47.572;10.704;2023-07-08T03:46:12;8.65;;;3.90;;
52734;SDS011;38631;47.572;10.704;2023-07-08T03:48:41;6.07;;;2.92;;
52734;SDS011;38631;47.572;10.704;2023-07-08T03:51:09;6.15;;;2.95;;
52734;SDS011;38631;47.572;10.704;2023-07-08T03:53:40;7.45;;;3.75;;
52734;SDS011;38631;47.572;10.704;2023-07-08T03:56:05;7.55;;;3.53;;
52734;SDS011;38631;47.572;10.704;2023-07-08T03:58:30;5.85;;;3.40;;
52734;SDS011;38631;47.572;10.704;2023-07-08T04:00:56;9.77;;;3.28;;
52734;SDS011;38631;47.572;10.704;2023-07-08T04:03:21;5.68;;;3.05;;
52734;SDS011;38631;47.572;10.704;2023-07-08T04:05:47;9.25;;;3.75;;
52734;SDS011;38631;47.572;10.704;2023-07-08T04:08:12;7.68;;;3.50;;
52734;SDS011;38631;47.572;10.704;2023-07-08T04:10:37;6.82;;;3.20;;
52734;SDS011;38631;47.572;10.704;2023-07-08T04:13:03;8.77;;;4.22;;
52734;SDS011;38631;47.572;10.704;2023-07-08T04:15:28;7.05;;;3.42;;
52734;SDS011;38631;47.572;10.704;2023-07-08T04:17:53;7.75;;;4.07;;
52734;SDS011;38631;47.572;10.704;2023-07-08T04:20:20;4.53;;;3.15;;
52734;SDS011;38631;47.572;10.704;2023-07-08T04:22:46;5.93;;;3.35;;
52734;SDS011;38631;47.572;10.704;2023-07-08T04:25:12;7.38;;;3.47;;
52734;SDS011;38631;47.572;10.704;2023-07-08T04:27:39;5.78;;;3.28;;
52734;SDS011;38631;47.572;10.704;2023-07-08T04:30:05;6.65;;;3.53;;
52734;SDS011;38631;47.572;10.704;2023-07-08T04:32:32;8.55;;;3.50;;
52734;SDS011;38631;47.572;10.704;2023-07-08T04:34:57;8.40;;;3.75;;
52734;SDS011;38631;47.572;10.704;2023-07-08T04:37:23;5.68;;;3.47;;
52734;SDS011;38631;47.572;10.704;2023-07-08T04:39:49;9.55;;;3.65;;
52734;SDS011;38631;47.572;10.704;2023-07-08T04:42:14;7.15;;;3.40;;
52734;SDS011;38631;47.572;10.704;2023-07-08T04:44:43;7.57;;;3.53;;
52734;SDS011;38631;47.572;10.704;2023-07-08T04:47:09;6.55;;;3.65;;
52734;SDS011;38631;47.572;10.704;2023-07-08T04:49:37;5.43;;;3.20;;
52734;SDS011;38631;47.572;10.704;2023-07-08T04:52:02;6.38;;;3.30;;
52734;SDS011;38631;47.572;10.704;2023-07-08T04:54:28;6.82;;;3.80;;
52734;SDS011;38631;47.572;10.704;2023-07-08T04:56:54;5.72;;;3.20;;
52734;SDS011;38631;47.572;10.704;2023-07-08T04:59:21;6.47;;;2.72;;
52734;SDS011;38631;47.572;10.704;2023-07-08T05:01:49;5.18;;;3.60;;
52734;SDS011;38631;47.572;10.704;2023-07-08T05:04:22;8.77;;;3.20;;
52734;SDS011;38631;47.572;10.704;2023-07-08T05:06:48;9.18;;;3.15;;
52734;SDS011;38631;47.572;10.704;2023-07-08T05:09:14;5.40;;;3.35;;
52734;SDS011;38631;47.572;10.704;2023-07-08T05:11:39;8.27;;;3.35;;
52734;SDS011;38631;47.572;10.704;2023-07-08T05:14:05;5.90;;;3.30;;
52734;SDS011;38631;47.572;10.704;2023-07-08T05:16:32;6.50;;;3.72;;
52734;SDS011;38631;47.572;10.704;2023-07-08T05:18:58;5.85;;;2.95;;
52734;SDS011;38631;47.572;10.704;2023-07-08T05:21:24;5.00;;;2.83;;
52734;SDS011;38631;47.572;10.704;2023-07-08T05:23:50;6.40;;;4.03;;
52734;SDS011;38631;47.572;10.704;2023-07-08T05:26:16;8.23;;;4.43;;
52734;SDS011;38631;47.572;10.704;2023-07-08T05:28:41;6.63;;;3.53;;
52734;SDS011;38631;47.572;10.704;2023-07-08T05:31:07;5.63;;;3.25;;
52734;SDS011;38631;47.572;10.704;2023-07-08T05:33:32;6.82;;;3.15;;
52734;SDS011;38631;47.572;10.704;2023-07-08T05:35:58;6.45;;;3.33;;
52734;SDS011;38631;47.572;10.704;2023-07-08T05:38:24;7.28;;;3.38;;
52734;SDS011;38631;47.572;10.704;2023-07-08T05:40:50;7.25;;;4.15;;
52734;SDS011;38631;47.572;10.704;2023-07-08T05:43:18;6.03;;;3.08;;
52734;SDS011;38631;47.572;10.704;2023-07-08T05:45:45;5.53;;;3.28;;
52734;SDS011;38631;47.572;10.704;2023-07-08T05:48:10;8.57;;;3.35;;
52734;SDS011;38631;47.572;10.704;2023-07-08T05:50:36;6.55;;;3.47;;
52734;SDS011;38631;47.572;10.704;2023-07-08T05:53:02;5.88;;;3.60;;
52734;SDS011;38631;47.572;10.704;2023-07-08T05:55:27;6.57;;;3.45;;
52734;SDS011;38631;47.572;10.704;2023-07-08T05:57:54;7.32;;;3.42;;
52734;SDS011;38631;47.572;10.704;2023-07-08T06:00:20;5.43;;;3.35;;
52734;SDS011;38631;47.572;10.704;2023-07-08T06:02:45;6.07;;;3.30;;
52734;SDS011;38631;47.572;10.704;2023-07-08T06:05:11;7.10;;;3.30;;
52734;SDS011;38631;47.572;10.704;2023-07-08T06:07:36;7.88;;;3.80;;
52734;SDS011;38631;47.572;10.704;2023-07-08T06:10:02;6.05;;;3.78;;
52734;SDS011;38631;47.572;10.704;2023-07-08T06:12:28;5.53;;;3.55;;
52734;SDS011;38631;47.572;10.704;2023-07-08T06:14:55;5.18;;;2.85;;
52734;SDS011;38631;47.572;10.704;2023-07-08T06:17:21;6.68;;;2.95;;
52734;SDS011;38631;47.572;10.704;2023-07-08T06:19:47;6.75;;;3.92;;
52734;SDS011;38631;47.572;10.704;2023-07-08T06:22:12;9.05;;;3.40;;
52734;SDS011;38631;47.572;10.704;2023-07-08T06:24:38;7.13;;;3.35;;
52734;SDS011;38631;47.572;10.704;2023-07-08T06:27:03;7.72;;;4.25;;
52734;SDS011;38631;47.572;10.704;2023-07-08T06:29:29;5.88;;;3.33;;
52734;SDS011;38631;47.572;10.704;2023-07-08T06:31:54;6.75;;;3.00;;
52734;SDS011;38631;47.572;10.704;2023-07-08T06:34:20;5.57;;;3.25;;
52734;SDS011;38631;47.572;10.704;2023-07-08T06:36:48;9.40;;;3.88;;
52734;SDS011;38631;47.572;10.704;2023-07-08T06:39:14;6.18;;;3.33;;
52734;SDS011;38631;47.572;10.704;2023-07-08T06:41:39;7.10;;;3.22;;
52734;SDS011;38631;47.572;10.704;2023-07-08T06:44:04;4.97;;;3.20;;
52734;SDS011;38631;47.572;10.704;2023-07-08T06:46:30;5.78;;;3.22;;
52734;SDS011;38631;47.572;10.704;2023-07-08T06:48:55;7.78;;;4.00;;
52734;SDS011;38631;47.572;10.704;2023-07-08T06:51:21;5.45;;;3.22;;
52734;SDS011;38631;47.572;10.704;2023-07-08T06:53:46;6.38;;;3.38;;
52734;SDS011;38631;47.572;10.704;2023-07-08T06:56:11;6.53;;;3.40;;
52734;SDS011;38631;47.572;10.704;2023-07-08T06:58:37;8.00;;;3.63;;
52734;SDS011;38631;47.572;10.704;2023-07-08T07:01:02;8.48;;;3.58;;
52734;SDS011;38631;47.572;10.704;2023-07-08T07:03:27;7.85;;;3.45;;
52734;SDS011;38631;47.572;10.704;2023-07-08T07:05:53;4.97;;;3.20;;
52734;SDS011;38631;47.572;10.704;2023-07-08T07:08:18;6.55;;;3.60;;
52734;SDS011;38631;47.572;10.704;2023-07-08T07:10:44;6.15;;;2.95;;
52734;SDS011;38631;47.572;10.704;2023-07-08T07:13:09;5.95;;;3.70;;
52734;SDS011;38631;47.572;10.704;2023-07-08T07:15:34;5.68;;;3.38;;
52734;SDS011;38631;47.572;10.704;2023-07-08T07:18:00;6.40;;;3.30;;
52734;SDS011;38631;47.572;10.704;2023-07-08T07:20:26;5.18;;;3.00;;
52734;SDS011;38631;47.572;10.704;2023-07-08T07:22:52;5.32;;;3.25;;
52734;SDS011;38631;47.572;10.704;2023-07-08T07:25:18;8.10;;;3.65;;
52734;SDS011;38631;47.572;10.704;2023-07-08T07:27:43;6.35;;;3.13;;
52734;SDS011;38631;47.572;10.704;2023-07-08T07:30:09;6.70;;;3.63;;
52734;SDS011;38631;47.572;10.704;2023-07-08T07:32:39;6.18;;;3.15;;
52734;SDS011;38631;47.572;10.704;2023-07-08T07:35:05;6.13;;;2.85;;
52734;SDS011;38631;47.572;10.704;2023-07-08T07:37:31;6.57;;;3.75;;
52734;SDS011;38631;47.572;10.704;2023-07-08T07:39:56;6.03;;;3.25;;
52734;SDS011;38631;47.572;10.704;2023-07-08T07:42:22;7.05;;;3.08;;
52734;SDS011;38631;47.572;10.704;2023-07-08T07:44:47;7.55;;;2.83;;
52734;SDS011;38631;47.572;10.704;2023-07-08T07:47:13;8.30;;;3.78;;
52734;SDS011;38631;47.572;10.704;2023-07-08T07:49:38;6.47;;;3.50;;
52734;SDS011;38631;47.572;10.704;2023-07-08T07:52:04;8.35;;;3.25;;
52734;SDS011;38631;47.572;10.704;2023-07-08T07:54:30;5.55;;;3.15;;
52734;SDS011;38631;47.572;10.704;2023-07-08T07:56:56;6.68;;;3.60;;
52734;SDS011;38631;47.572;10.704;2023-07-08T07:59:21;5.40;;;3.00;;
52734;SDS011;38631;47.572;10.704;2023-07-08T08:01:46;5.88;;;3.17;;
52734;SDS011;38631;47.572;10.704;2023-07-08T08:04:12;8.85;;;3.67;;
52734;SDS011;38631;47.572;10.704;2023-07-08T08:06:37;6.00;;;3.50;;
52734;SDS011;38631;47.572;10.704;2023-07-08T08:09:03;5.68;;;3.35;;
52734;SDS011;38631;47.572;10.704;2023-07-08T08:11:29;7.65;;;3.53;;
52734;SDS011;38631;47.572;10.704;2023-07-08T08:13:55;6.07;;;3.58;;
52734;SDS011;38631;47.572;10.704;2023-07-08T08:16:21;5.90;;;3.00;;
52734;SDS011;38631;47.572;10.704;2023-07-08T08:18:46;6.80;;;3.17;;
52734;SDS011;38631;47.572;10.704;2023-07-08T08:21:15;6.88;;;3.72;;
52734;SDS011;38631;47.572;10.704;2023-07-08T08:23:44;5.55;;;2.92;;
52734;SDS011;38631;47.572;10.704;2023-07-08T08:26:09;6.60;;;3.28;;
52734;SDS011;38631;47.572;10.704;2023-07-08T08:28:34;7.05;;;3.45;;
52734;SDS011;38631;47.572;10.704;2023-07-08T08:31:00;5.78;;;3.25;;
52734;SDS011;38631;47.572;10.704;2023-07-08T08:33:25;6.43;;;2.88;;
52734;SDS011;38631;47.572;10.704;2023-07-08T08:35:50;5.50;;;2.95;;
52734;SDS011;38631;47.572;10.704;2023-07-08T08:38:16;4.68;;;3.00;;
52734;SDS011;38631;47.572;10.704;2023-07-08T08:40:42;6.78;;;3.13;;
52734;SDS011;38631;47.572;10.704;2023-07-08T08:43:15;6.53;;;2.92;;
52734;SDS011;38631;47.572;10.704;2023-07-08T08:46:29;5.38;;;2.97;;
52734;SDS011;38631;47.572;10.704;2023-07-08T08:51:43;6.07;;;3.38;;
52734;SDS011;38631;47.572;10.704;2023-07-08T08:54:09;7.28;;;3.70;;
52734;SDS011;38631;47.572;10.704;2023-07-08T08:56:46;6.22;;;3.08;;
52734;SDS011;38631;47.572;10.704;2023-07-08T09:04:49;4.30;;;2.63;;
52734;SDS011;38631;47.572;10.704;2023-07-08T09:07:16;6.45;;;2.78;;
52734;SDS011;38631;47.572;10.704;2023-07-08T09:10:03;5.20;;;2.38;;
52734;SDS011;38631;47.572;10.704;2023-07-08T09:12:34;5.00;;;3.08;;
52734;SDS011;38631;47.572;10.704;2023-07-08T09:15:00;6.25;;;2.95;;
52734;SDS011;38631;47.572;10.704;2023-07-08T09:17:36;4.22;;;2.35;;
52734;SDS011;38631;47.572;10.704;2023-07-08T09:22:48;5.15;;;2.42;;
52734;SDS011;38631;47.572;10.704;2023-07-08T09:27:50;4.35;;;2.47;;
52734;SDS011;38631;47.572;10.704;2023-07-08T09:30:17;4.68;;;2.33;;
52734;SDS011;38631;47.572;10.704;2023-07-08T09:32:46;7.07;;;2.63;;
52734;SDS011;38631;47.572;10.704;2023-07-08T09:35:23;5.90;;;2.63;;
52734;SDS011;38631;47.572;10.704;2023-07-08T09:38:06;4.72;;;2.85;;
52734;SDS011;38631;47.572;10.704;2023-07-08T09:40:33;4.90;;;2.28;;
52734;SDS011;38631;47.572;10.704;2023-07-08T09:43:03;3.85;;;2.28;;
52734;SDS011;38631;47.572;10.704;2023-07-08T09:45:45;3.95;;;2.30;;
52734;SDS011;38631;47.572;10.704;2023-07-08T09:48:17;5.15;;;2.40;;
52734;SDS011;38631;47.572;10.704;2023-07-08T09:50:47;7.22;;;2.25;;
52734;SDS011;38631;47.572;10.704;2023-07-08T09:53:14;3.95;;;2.20;;
52734;SDS011;38631;47.572;10.704;2023-07-08T09:55:40;4.22;;;2.10;;
52734;SDS011;38631;47.572;10.704;2023-07-08T09:58:08;4.82;;;2.28;;
52734;SDS011;38631;47.572;10.704;2023-07-08T10:00:39;3.97;;;2.30;;
52734;SDS011;38631;47.572;10.704;2023-07-08T10:03:20;5.53;;;1.83;;
52734;SDS011;38631;47.572;10.704;2023-07-08T10:05:48;4.63;;;2.70;;
52734;SDS011;38631;47.572;10.704;2023-07-08T10:08:17;5.88;;;2.00;;
52734;SDS011;38631;47.572;10.704;2023-07-08T10:10:48;4.65;;;2.50;;
52734;SDS011;38631;47.572;10.704;2023-07-08T10:13:45;4.90;;;2.22;;
52734;SDS011;38631;47.572;10.704;2023-07-08T10:18:45;4.32;;;2.35;;
52734;SDS011;38631;47.572;10.704;2023-07-08T10:21:20;7.30;;;2.75;;
52734;SDS011;38631;47.572;10.704;2023-07-08T10:26:36;3.08;;;1.50;;
52734;SDS011;38631;47.572;10.704;2023-07-08T10:34:49;3.55;;;1.25;;
52734;SDS011;38631;47.572;10.704;2023-07-08T10:40:36;6.10;;;1.30;;
52734;SDS011;38631;47.572;10.704;2023-07-08T10:43:15;5.03;;;1.83;;
52734;SDS011;38631;47.572;10.704;2023-07-08T10:45:56;2.35;;;1.40;;
52734;SDS011;38631;47.572;10.704;2023-07-08T10:48:48;3.30;;;1.40;;
52734;SDS011;38631;47.572;10.704;2023-07-08T10:56:48;3.13;;;1.70;;
52734;SDS011;38631;47.572;10.704;2023-07-08T11:02:33;1.58;;;1.17;;
52734;SDS011;38631;47.572;10.704;2023-07-08T11:08:31;2.60;;;1.70;;
52734;SDS011;38631;47.572;10.704;2023-07-08T11:11:06;2.67;;;1.42;;
52734;SDS011;38631;47.572;10.704;2023-07-08T11:13:38;5.32;;;1.58;;
52734;SDS011;38631;47.572;10.704;2023-07-08T11:16:23;4.47;;;1.25;;
52734;SDS011;38631;47.572;10.704;2023-07-08T11:19:05;2.50;;;1.58;;
52734;SDS011;38631;47.572;10.704;2023-07-08T11:21:37;6.15;;;1.77;;
52734;SDS011;38631;47.572;10.704;2023-07-08T11:24:29;2.72;;;1.60;;
52734;SDS011;38631;47.572;10.704;2023-07-08T11:27:11;3.03;;;1.27;;
52734;SDS011;38631;47.572;10.704;2023-07-08T11:29:48;4.20;;;1.90;;
52734;SDS011;38631;47.572;10.704;2023-07-08T11:32:19;3.75;;;1.67;;
52734;SDS011;38631;47.572;10.704;2023-07-08T11:34:46;2.65;;;1.50;;
52734;SDS011;38631;47.572;10.704;2023-07-08T11:37:14;2.67;;;1.25;;
52734;SDS011;38631;47.572;10.704;2023-07-08T11:39:43;2.35;;;1.35;;
52734;SDS011;38631;47.572;10.704;2023-07-08T11:44:43;2.88;;;1.63;;
52734;SDS011;38631;47.572;10.704;2023-07-08T11:47:15;3.38;;;1.50;;
52734;SDS011;38631;47.572;10.704;2023-07-08T11:49:59;3.92;;;2.00;;
52734;SDS011;38631;47.572;10.704;2023-07-08T11:52:26;2.35;;;1.52;;
52734;SDS011;38631;47.572;10.704;2023-07-08T11:54:59;4.47;;;1.67;;
52734;SDS011;38631;47.572;10.704;2023-07-08T11:57:37;3.03;;;1.50;;
52734;SDS011;38631;47.572;10.704;2023-07-08T12:00:14;4.07;;;1.38;;
52734;SDS011;38631;47.572;10.704;2023-07-08T12:02:48;3.38;;;1.33;;
52734;SDS011;38631;47.572;10.704;2023-07-08T12:05:17;3.30;;;1.60;;
52734;SDS011;38631;47.572;10.704;2023-07-08T12:07:55;4.82;;;1.60;;
52734;SDS011;38631;47.572;10.704;2023-07-08T12:10:26;3.17;;;1.48;;
52734;SDS011;38631;47.572;10.704;2023-07-08T12:12:55;4.28;;;1.80;;
52734;SDS011;38631;47.572;10.704;2023-07-08T12:15:24;3.42;;;1.58;;
52734;SDS011;38631;47.572;10.704;2023-07-08T12:17:54;4.10;;;2.03;;
52734;SDS011;38631;47.572;10.704;2023-07-08T12:22:53;2.97;;;1.38;;
52734;SDS011;38631;47.572;10.704;2023-07-08T12:25:20;3.28;;;1.27;;
52734;SDS011;38631;47.572;10.704;2023-07-08T12:27:47;2.40;;;1.47;;
52734;SDS011;38631;47.572;10.704;2023-07-08T12:30:14;3.60;;;1.60;;
52734;SDS011;38631;47.572;10.704;2023-07-08T12:32:40;2.47;;;1.40;;
52734;SDS011;38631;47.572;10.704;2023-07-08T12:35:23;3.47;;;2.10;;
52734;SDS011;38631;47.572;10.704;2023-07-08T12:37:53;2.67;;;1.55;;
52734;SDS011;38631;47.572;10.704;2023-07-08T12:40:21;3.47;;;1.50;;
52734;SDS011;38631;47.572;10.704;2023-07-08T12:42:47;3.03;;;1.60;;
52734;SDS011;38631;47.572;10.704;2023-07-08T12:45:13;2.40;;;1.30;;
52734;SDS011;38631;47.572;10.704;2023-07-08T12:47:43;3.00;;;1.80;;
52734;SDS011;38631;47.572;10.704;2023-07-08T12:50:10;2.40;;;1.35;;
52734;SDS011;38631;47.572;10.704;2023-07-08T12:52:36;3.88;;;1.70;;
52734;SDS011;38631;47.572;10.704;2023-07-08T12:55:01;2.60;;;1.55;;
52734;SDS011;38631;47.572;10.704;2023-07-08T12:57:27;2.55;;;1.52;;
52734;SDS011;38631;47.572;10.704;2023-07-08T12:59:52;2.67;;;1.60;;
52734;SDS011;38631;47.572;10.704;2023-07-08T13:02:19;2.72;;;1.30;;
52734;SDS011;38631;47.572;10.704;2023-07-08T13:04:49;2.38;;;1.17;;
52734;SDS011;38631;47.572;10.704;2023-07-08T13:07:25;3.97;;;1.45;;
52734;SDS011;38631;47.572;10.704;2023-07-08T13:09:59;2.22;;;1.33;;
52734;SDS011;38631;47.572;10.704;2023-07-08T13:12:25;2.70;;;1.42;;
52734;SDS011;38631;47.572;10.704;2023-07-08T13:14:52;3.78;;;1.30;;
52734;SDS011;38631;47.572;10.704;2023-07-08T13:17:19;2.58;;;1.33;;
52734;SDS011;38631;47.572;10.704;2023-07-08T13:19:45;2.78;;;1.35;;
52734;SDS011;38631;47.572;10.704;2023-07-08T13:22:15;2.50;;;1.40;;
52734;SDS011;38631;47.572;10.704;2023-07-08T13:24:43;2.95;;;2.08;;
52734;SDS011;38631;47.572;10.704;2023-07-08T13:27:14;3.28;;;1.45;;
52734;SDS011;38631;47.572;10.704;2023-07-08T13:29:46;3.20;;;1.52;;
52734;SDS011;38631;47.572;10.704;2023-07-08T13:32:11;2.08;;;1.23;;
52734;SDS011;38631;47.572;10.704;2023-07-08T13:34:37;3.08;;;1.80;;
52734;SDS011;38631;47.572;10.704;2023-07-08T13:37:08;2.22;;;1.33;;
52734;SDS011;38631;47.572;10.704;2023-07-08T13:39:43;2.88;;;1.42;;
52734;SDS011;38631;47.572;10.704;2023-07-08T13:42:10;3.33;;;1.45;;
52734;SDS011;38631;47.572;10.704;2023-07-08T13:44:45;2.70;;;1.50;;
52734;SDS011;38631;47.572;10.704;2023-07-08T13:47:45;2.95;;;1.58;;
52734;SDS011;38631;47.572;10.704;2023-07-08T13:50:18;3.30;;;1.80;;
52734;SDS011;38631;47.572;10.704;2023-07-08T13:52:56;3.15;;;1.35;;
52734;SDS011;38631;47.572;10.704;2023-07-08T13:55:22;2.45;;;1.40;;
52734;SDS011;38631;47.572;10.704;2023-07-08T13:57:55;3.10;;;1.50;;
52734;SDS011;38631;47.572;10.704;2023-07-08T14:00:24;3.38;;;1.50;;
52734;SDS011;38631;47.572;10.704;2023-07-08T14:02:49;3.08;;;1.55;;
52734;SDS011;38631;47.572;10.704;2023-07-08T14:05:15;2.50;;;1.17;;
52734;SDS011;38631;47.572;10.704;2023-07-08T14:07:45;2.60;;;1.30;;
52734;SDS011;38631;47.572;10.704;2023-07-08T14:10:10;3.00;;;1.52;;
52734;SDS011;38631;47.572;10.704;2023-07-08T14:12:37;3.05;;;1.50;;
52734;SDS011;38631;47.572;10.704;2023-07-08T14:15:03;3.63;;;1.75;;
52734;SDS011;38631;47.572;10.704;2023-07-08T14:17:28;4.60;;;1.98;;
52734;SDS011;38631;47.572;10.704;2023-07-08T14:19:54;2.65;;;1.33;;
52734;SDS011;38631;47.572;10.704;2023-07-08T14:24:55;3.67;;;1.45;;
52734;SDS011;38631;47.572;10.704;2023-07-08T14:27:21;2.83;;;1.63;;
52734;SDS011;38631;47.572;10.704;2023-07-08T14:29:47;1.98;;;1.38;;
52734;SDS011;38631;47.572;10.704;2023-07-08T14:32:20;3.80;;;1.25;;
52734;SDS011;38631;47.572;10.704;2023-07-08T14:34:52;2.35;;;1.63;;
52734;SDS011;38631;47.572;10.704;2023-07-08T14:37:19;3.17;;;1.73;;
52734;SDS011;38631;47.572;10.704;2023-07-08T14:39:46;4.97;;;1.90;;
52734;SDS011;38631;47.572;10.704;2023-07-08T14:42:12;7.10;;;1.60;;
52734;SDS011;38631;47.572;10.704;2023-07-08T14:44:39;3.00;;;1.58;;
52734;SDS011;38631;47.572;10.704;2023-07-08T14:47:11;3.25;;;1.40;;
52734;SDS011;38631;47.572;10.704;2023-07-08T14:49:37;3.03;;;1.67;;
52734;SDS011;38631;47.572;10.704;2023-07-08T14:52:03;2.10;;;1.33;;
52734;SDS011;38631;47.572;10.704;2023-07-08T14:54:29;3.30;;;1.40;;
52734;SDS011;38631;47.572;10.704;2023-07-08T14:56:55;4.00;;;1.55;;
52734;SDS011;38631;47.572;10.704;2023-07-08T14:59:22;4.72;;;1.73;;
52734;SDS011;38631;47.572;10.704;2023-07-08T15:01:51;2.88;;;1.52;;
52734;SDS011;38631;47.572;10.704;2023-07-08T15:04:18;3.83;;;1.83;;
52734;SDS011;38631;47.572;10.704;2023-07-08T15:06:44;3.00;;;1.70;;
52734;SDS011;38631;47.572;10.704;2023-07-08T15:09:10;2.72;;;1.63;;
52734;SDS011;38631;47.572;10.704;2023-07-08T15:11:36;3.97;;;1.92;;
52734;SDS011;38631;47.572;10.704;2023-07-08T15:16:33;2.83;;;1.45;;
52734;SDS011;38631;47.572;10.704;2023-07-08T15:18:59;3.28;;;1.48;;
52734;SDS011;38631;47.572;10.704;2023-07-08T15:21:24;4.78;;;2.35;;
52734;SDS011;38631;47.572;10.704;2023-07-08T15:23:50;2.47;;;1.42;;
52734;SDS011;38631;47.572;10.704;2023-07-08T15:26:15;3.40;;;1.40;;
52734;SDS011;38631;47.572;10.704;2023-07-08T15:28:41;2.28;;;1.38;;
52734;SDS011;38631;47.572;10.704;2023-07-08T15:31:12;2.60;;;1.52;;
52734;SDS011;38631;47.572;10.704;2023-07-08T15:33:39;4.32;;;2.10;;
52734;SDS011;38631;47.572;10.704;2023-07-08T15:36:06;3.70;;;1.63;;
52734;SDS011;38631;47.572;10.704;2023-07-08T15:38:32;2.25;;;1.63;;